Archival Weather

Tokyo Intl

Tokyo, Japan (RJTT)

Report from: Tuesday, November 21, 2023 2:30 AM JST
Current time: Sunday, February 25, 2024 12:08 AM JST

Current weather – Weather history – Daily summaries
Weather forecast

Temperature12.0°C (53.6°F)
Dew point3.0°C (37.4°F)
Winds 14 kts (7.2 m/s, 16.1 mph) North-Northwest (340°)
Visibility6.2 mi. (10 km)
Clouds Few clouds 1,000 ft. (305 m)
Altimeter30.15 in.Hg (1021 mB)
Relative humidity54 %
Density altitude-506 ft. (-154 m)
Remarks No significant changes expected in the next two hours
Flight conditions Visual Meteorological Conditions
Raw dataRJTT 201730Z 34014KT 9999 FEW010 12/03 Q1021 NOSIG RMK 1ST010 A3016
An error has occurred. This application may no longer respond until reloaded. Reload 🗙